ADDS METAR Data INFO
IDs: Format: Raw Decoded Include TAF

Data at: 2052 UTC 26 May 2017

KWRL 261953Z AUTO 16009KT 10SM OVC055 13/02 A2989 RMK AO2 SLP107 T01330017
KWRL 261853Z AUTO 00000KT 10SM OVC075 13/01 A2989 RMK AO2 SLP105 T01330011
KWRL 261753Z AUTO 23006KT 10SM BKN050 OVC100 13/02 A2989 RMK AO2 SLP105 T01330017 10144 20078 58007
KWRL 261653Z AUTO 36003KT 10SM OVC090 13/01 A2989 RMK AO2 SLP105 T01330006
KWRL 261553Z AUTO 08003KT 10SM FEW095 14/01 A2991 RMK AO2 SLP112 T01390011
KWRL 261453Z AUTO 36004KT 10SM CLR 13/02 A2991 RMK AO2 SLP110 T01330017 58002
KWRL 261353Z AUTO 10003KT 10SM FEW100 11/03 A2992 RMK AO2 SLP116 T01110028
KWRL 261253Z AUTO 14003KT 10SM BKN085 OVC100 09/05 A2993 RMK AO2 SLP119 T00890050
KWRL 261153Z AUTO 00000KT 10SM OVC080 08/06 A2992 RMK AO2 SLP116 T00780056 10117 20067 53004
KWRL 261053Z AUTO 00000KT 10SM BKN080 BKN100 BKN120 07/04 A2991 RMK AO2 SLP116 T00670039
KWRL 260953Z AUTO 24004KT 10SM BKN110 08/03 A2991 RMK AO2 SLP112 T00780028
KWRL 260853Z AUTO 22006KT 10SM OVC100 09/02 A2991 RMK AO2 SLP110 T00890022 53004
KWRL 260753Z AUTO 29004KT 10SM FEW080 OVC100 11/01 A2990 RMK AO2 SLP105 T01060006
KWRL 260653Z AUTO 32009KT 10SM OVC090 11/00 A2989 RMK AO2 SLP101 T01110000 401670094
KWRL 260553Z AUTO 31007KT 10SM BKN080 OVC100 11/00 A2989 RMK AO2 SLP102 T01110000 10161 20111 51019
KWRL 260453Z AUTO 32010KT 10SM OVC080 12/01 A2988 RMK AO2 SLP098 T01170006
KWRL 260353Z AUTO 33006KT 10SM SCT100 12/01 A2986 RMK AO2 SLP093 T01170006
KWRL 260253Z AUTO 36007KT 10SM BKN080 OVC100 13/M01 A2983 RMK AO2 SLP082 T01281006 52025
KWRL 260153Z AUTO 36011KT 10SM BKN095 14/M01 A2980 RMK AO2 SLP075 T01391011
KWRL 260053Z AUTO 36011KT 10SM SCT070 15/M01 A2977 RMK AO2 SLP063 T01501006
KWRL 252353Z AUTO 01011KT 10SM CLR 16/01 A2974 RMK AO2 SLP052 T01610006 10167 20150 52009
KWRL 252253Z AUTO 36015KT 10SM CLR 16/01 A2973 RMK AO2 PK WND 34028/2204 SLP048 T01610011
KWRL 252153Z AUTO 36019G24KT 10SM CLR 17/01 A2973 RMK AO2 PK WND 34028/2131 SLP043 T01670006
KWRL 252053Z AUTO 35016G29KT 10SM CLR 16/01 A2971 RMK AO2 PK WND 35031/2008 SLP039 T01610006 51017
KWRL 251953Z AUTO 35020G26KT 10SM SCT070 17/01 A2971 RMK AO2 PK WND 35028/1903 SLP034 T01670011
KWRL 251853Z AUTO 35019G28KT 10SM FEW065 16/01 A2968 RMK AO2 PK WND 01030/1810 SLP025 T01610006
KWRL 251753Z AUTO 35019G24KT 10SM CLR 16/M02 A2966 RMK AO2 SLP019 T01611017 10167 20094 53011
KWRL 251653Z AUTO 35010G18KT 10SM CLR 16/M04 A2964 RMK AO2 SLP008 T01561044
KWRL 251553Z AUTO 01010KT 10SM CLR 14/M05 A2962 RMK AO2 SLP002 T01441050
KWRL 251453Z AUTO 32010KT 10SM CLR 12/M05 A2962 RMK AO2 SLP999 T01221050 51012
KWRL 251353Z AUTO 30009KT 10SM CLR 12/M05 A2961 RMK AO2 SLP993 T01171050
KWRL 251253Z AUTO 29008KT 10SM CLR 09/M05 A2959 RMK AO2 SLP985 T00941050
KWRL 251153Z AUTO 26007KT 10SM CLR 10/M07 A2958 RMK AO2 SLP978 T01001067 10139 20094 53023
KWRL 251053Z AUTO 29005KT 10SM CLR 10/M07 A2954 RMK AO2 SLP965 T01001067
KWRL 250953Z AUTO 27009KT 10SM CLR 11/M04 A2952 RMK AO2 SLP956 T01061044
KWRL 250853Z AUTO 30010KT 10SM CLR 12/M04 A2950 RMK AO2 SLP947 T01171044 53010


Page loaded:  20:52 UTC  |   01:52 PM Pacific  |   02:52 PM Mountain  |   03:52 PM Central  |   04:52 PM Eastern

 

ADVISORIES

FORECASTS

FORECASTS

OBSERVATIONS

USER TOOLS

ABOUT US